Time;durP1;ratioP1;P1;durP2;ratioP2;P2;SDS_P1;SDS_P2;PMS_P1;PMS_P2;Temp;Humidity;BMP_temperature;BMP_pressure;BME280_temperature;BME280_humidity;BME280_pressure;Samples;Min_cycle;Max_cycle;Signal;HPM_P1;HPM_P2
2022/03/16 00:01:47;;;;;;;89.03;34.40;;;;;;;7.48;nan;96062.28;5144174;27;20274;-71
2022/03/16 00:04:15;;;;;;;64.57;28.48;;;;;;;7.70;nan;96067.22;5045789;27;20252;-70
2022/03/16 00:06:42;;;;;;;67.07;29.65;;;;;;;7.36;nan;96066.59;5084965;27;20218;-69
2022/03/16 00:09:09;;;;;;;56.50;26.45;;;;;;;7.22;nan;96064.09;5090889;27;20709;-69
2022/03/16 00:11:36;;;;;;;48.22;24.95;;;;;;;6.51;nan;96075.28;5045267;27;22034;-70
2022/03/16 00:14:03;;;;;;;54.65;26.17;;;;;;;6.38;nan;96061.00;5140136;27;20302;-71
2022/03/16 00:16:29;;;;;;;59.70;27.60;;;;;;;6.79;nan;96063.44;5083760;27;20226;-71
2022/03/16 00:18:56;;;;;;;61.47;28.73;;;;;;;6.93;nan;96068.47;5053949;27;20677;-71
2022/03/16 00:21:24;;;;;;;62.05;29.17;;;;;;;6.64;nan;96063.50;5146414;27;20252;-70
2022/03/16 00:23:51;;;;;;;60.90;29.10;;;;;;;6.80;nan;96045.75;5146263;27;20295;-71
2022/03/16 00:26:18;;;;;;;62.80;27.85;;;;;;;6.63;nan;96046.66;5144938;27;20226;-70
2022/03/16 00:28:44;;;;;;;56.88;27.83;;;;;;;6.99;nan;96043.16;5119580;27;20202;-71
2022/03/16 00:31:11;;;;;;;56.60;26.63;;;;;;;7.12;nan;96042.25;5140579;27;20234;-70
2022/03/16 00:33:39;;;;;;;61.42;28.40;;;;;;;6.85;nan;96047.44;5107505;27;20669;-71
2022/03/16 00:36:06;;;;;;;55.97;27.77;;;;;;;6.85;nan;96037.31;5136460;27;20323;-71
2022/03/16 00:38:35;;;;;;;54.00;27.02;;;;;;;6.73;nan;96033.97;5115770;27;20549;-70
2022/03/16 00:41:02;;;;;;;56.10;27.17;;;;;;;6.74;nan;96017.97;5142186;27;20283;-71
2022/03/16 00:43:29;;;;;;;60.97;28.48;;;;;;;6.80;nan;96010.38;5145834;27;20203;-71
2022/03/16 00:45:56;;;;;;;71.00;29.13;;;;;;;7.00;nan;96006.91;5062609;27;20304;-71
2022/03/16 00:48:23;;;;;;;56.35;27.10;;;;;;;6.67;nan;96023.91;5117577;27;20267;-71
2022/03/16 00:50:49;;;;;;;58.40;26.73;;;;;;;6.86;nan;96003.63;5145365;27;20686;-71
2022/03/16 00:53:16;;;;;;;59.60;27.02;;;;;;;6.27;nan;95987.81;5144728;27;20222;-71
2022/03/16 00:55:45;;;;;;;63.27;29.27;;;;;;;6.03;nan;95987.84;5107255;27;20586;-70
2022/03/16 00:58:12;;;;;;;56.80;27.20;;;;;;;6.43;nan;95983.59;5043391;27;20709;-71
2022/03/16 01:00:38;;;;;;;60.97;27.13;;;;;;;6.86;nan;95985.94;5047431;27;20282;-71
2022/03/16 01:03:05;;;;;;;52.15;25.83;;;;;;;7.11;nan;95985.81;5044645;27;20309;-71
2022/03/16 01:05:32;;;;;;;55.70;25.10;;;;;;;7.32;nan;95982.31;5059051;27;20286;-71
2022/03/16 01:07:59;;;;;;;49.92;24.60;;;;;;;7.47;nan;95981.34;5046159;27;21595;-70
2022/03/16 01:10:25;;;;;;;55.67;26.58;;;;;;;7.32;nan;95973.88;5075535;27;20527;-71
2022/03/16 01:12:55;;;;;;;66.47;25.85;;;;;;;7.40;nan;95978.06;5142688;27;20226;-70
2022/03/16 01:15:23;;;;;;;52.80;25.27;;;;;;;7.28;nan;95973.06;5143372;27;21588;-70
2022/03/16 01:17:50;;;;;;;52.78;26.50;;;;;;;6.81;nan;95978.38;5105449;27;20673;-70
2022/03/16 01:20:18;;;;;;;65.45;25.77;;;;;;;6.62;nan;95974.25;5106366;27;20685;-71
2022/03/16 01:22:45;;;;;;;58.20;27.13;;;;;;;6.54;nan;95956.59;5105236;27;21141;-71
2022/03/16 01:25:12;;;;;;;60.50;26.55;;;;;;;6.57;nan;95950.69;5086946;27;20752;-70
2022/03/16 01:27:38;;;;;;;55.58;26.35;;;;;;;6.79;nan;95950.59;5046976;27;20198;-71
2022/03/16 01:30:08;;;;;;;58.10;25.77;;;;;;;6.85;nan;95936.25;5097275;27;20199;-71
2022/03/16 01:32:35;;;;;;;54.85;27.27;;;;;;;6.80;nan;95946.38;5144415;27;20239;-71
2022/03/16 01:35:02;;;;;;;55.03;26.38;;;;;;;6.92;nan;95943.81;5100522;27;20226;-71
2022/03/16 01:37:32;;;;;;;55.45;27.33;;;;;;;6.96;nan;95935.34;5042029;27;20798;-71
2022/03/16 01:39:59;;;;;;;60.13;26.48;;;;;;;6.89;nan;95948.03;5051264;27;20215;-71
2022/03/16 01:42:27;;;;;;;53.35;25.77;;;;;;;6.80;nan;95944.69;5044979;27;20673;-71
2022/03/16 01:44:57;;;;;;;53.20;27.30;;;;;;;7.11;nan;95934.41;5054795;27;20210;-70
2022/03/16 01:47:26;;;;;;;46.75;25.58;;;;;;;7.13;nan;95925.13;5113613;27;20201;-70
2022/03/16 01:49:55;;;;;;;62.50;26.80;;;;;;;7.15;nan;95925.97;5146421;27;20205;-70
2022/03/16 01:52:24;;;;;;;52.35;25.25;;;;;;;7.10;nan;95932.75;5148762;27;20221;-70
2022/03/16 01:54:52;;;;;;;44.80;23.50;;;;;;;7.22;nan;95927.59;5149771;27;20726;-70
2022/03/16 01:57:20;;;;;;;50.63;24.80;;;;;;;6.96;nan;95920.16;5147922;27;20209;-70
2022/03/16 01:59:47;;;;;;;53.17;26.30;;;;;;;7.15;nan;95916.69;5148510;27;20252;-70
2022/03/16 02:02:14;;;;;;;48.53;23.70;;;;;;;7.24;nan;95925.06;5148501;27;20206;-71
2022/03/16 02:04:43;;;;;;;48.17;23.80;;;;;;;7.39;nan;95915.69;5149119;27;20207;-70
2022/03/16 02:07:11;;;;;;;47.80;23.95;;;;;;;7.55;nan;95910.50;5053319;27;20696;-70
2022/03/16 02:09:37;;;;;;;49.70;23.17;;;;;;;7.39;nan;95912.31;5056923;27;20758;-70
2022/03/16 02:12:05;;;;;;;56.25;25.17;;;;;;;7.50;nan;95910.53;5051712;27;20271;-70
2022/03/16 02:14:32;;;;;;;44.80;23.45;;;;;;;7.50;nan;95910.53;5144466;27;20725;-70
2022/03/16 02:16:58;;;;;;;48.80;24.00;;;;;;;7.30;nan;95905.63;5146592;27;20226;-70
2022/03/16 02:19:25;;;;;;;46.20;24.23;;;;;;;6.97;nan;95901.63;5146763;27;20230;-70
2022/03/16 02:21:56;;;;;;;50.67;25.05;;;;;;;7.00;nan;95914.25;5145746;27;20199;-70
2022/03/16 02:24:25;;;;;;;42.38;24.52;;;;;;;6.53;nan;95891.78;5130637;27;20201;-70
2022/03/16 02:26:52;;;;;;;46.25;23.00;;;;;;;6.54;nan;95885.88;5055585;27;20223;-71
2022/03/16 02:29:18;;;;;;;45.40;23.90;;;;;;;6.82;nan;95886.56;5067413;27;20207;-70
2022/03/16 02:31:45;;;;;;;41.25;22.77;;;;;;;6.47;nan;95891.78;5144374;27;20717;-70
2022/03/16 02:34:12;;;;;;;42.83;21.55;;;;;;;6.42;nan;95896.91;5049284;27;20310;-70
2022/03/16 02:36:39;;;;;;;34.50;19.00;;;;;;;6.38;nan;95891.84;5048702;27;20294;-70
2022/03/16 02:39:06;;;;;;;42.85;19.10;;;;;;;6.19;nan;95887.72;5085651;27;20194;-71
2022/03/16 02:41:34;;;;;;;39.15;19.77;;;;;;;6.43;nan;95887.63;5092114;27;20203;-71
2022/03/16 02:44:00;;;;;;;38.70;18.93;;;;;;;6.38;nan;95891.84;5054812;27;20280;-71
2022/03/16 02:46:27;;;;;;;37.38;19.67;;;;;;;6.34;nan;95890.19;5115125;27;20195;-71
2022/03/16 02:48:54;;;;;;;38.55;19.13;;;;;;;6.40;nan;95892.69;5103351;27;20254;-71
2022/03/16 02:51:21;;;;;;;31.40;17.30;;;;;;;6.34;nan;95885.13;5053748;27;20255;-70
2022/03/16 02:53:48;;;;;;;32.47;17.58;;;;;;;6.14;nan;95890.25;5050546;27;20670;-70
2022/03/16 02:56:14;;;;;;;31.95;16.25;;;;;;;6.09;nan;95876.81;5054217;27;22034;-70
2022/03/16 02:58:43;;;;;;;32.80;17.93;;;;;;;6.23;nan;95881.81;5052062;27;20672;-70
2022/03/16 03:01:10;;;;;;;36.45;17.30;;;;;;;6.16;nan;95873.44;5049025;27;20366;-71
2022/03/16 03:03:36;;;;;;;34.50;19.27;;;;;;;6.32;nan;95864.09;5051910;27;20222;-70
2022/03/16 03:06:03;;;;;;;37.90;17.98;;;;;;;6.42;nan;95856.50;5049044;27;20234;-70
2022/03/16 03:08:30;;;;;;;43.60;18.02;;;;;;;6.27;nan;95861.59;5074365;27;20207;-71
2022/03/16 03:10:56;;;;;;;40.30;19.40;;;;;;;5.98;nan;95854.13;5147999;27;20849;-71
2022/03/16 03:13:24;;;;;;;43.40;19.88;;;;;;;5.94;nan;95851.66;5147106;27;20715;-71
2022/03/16 03:15:52;;;;;;;43.65;19.10;;;;;;;6.19;nan;95862.50;5147402;27;20731;-70
2022/03/16 03:18:19;;;;;;;35.85;18.45;;;;;;;6.48;nan;95855.59;5147080;27;21461;-71
2022/03/16 03:20:46;;;;;;;40.45;19.45;;;;;;;6.80;nan;95853.75;5147580;27;20298;-71
2022/03/16 03:23:12;;;;;;;34.60;18.20;;;;;;;6.99;nan;95856.13;5088915;27;20210;-70
2022/03/16 03:25:39;;;;;;;40.90;19.60;;;;;;;6.99;nan;95853.59;5049832;27;20286;-70
2022/03/16 03:28:06;;;;;;;41.08;19.58;;;;;;;6.95;nan;95847.72;5141496;27;20274;-71
2022/03/16 03:30:33;;;;;;;38.03;20.42;;;;;;;6.95;nan;95852.78;5079267;27;20203;-70
2022/03/16 03:33:01;;;;;;;44.10;20.55;;;;;;;7.11;nan;95849.31;5115324;27;20208;-70
2022/03/16 03:35:28;;;;;;;39.78;20.95;;;;;;;6.97;nan;95850.25;5126203;27;20224;-70
2022/03/16 03:37:55;;;;;;;45.05;20.08;;;;;;;6.79;nan;95846.16;5125386;27;20863;-70
2022/03/16 03:40:22;;;;;;;39.78;20.40;;;;;;;6.71;nan;95838.63;5126635;27;20884;-70
2022/03/16 03:42:49;;;;;;;41.28;20.27;;;;;;;6.72;nan;95834.41;5125776;27;20204;-70
2022/03/16 03:45:16;;;;;;;41.72;21.00;;;;;;;6.49;nan;95848.03;5126164;27;20208;-70
2022/03/16 03:47:43;;;;;;;45.22;20.40;;;;;;;6.32;nan;95851.47;5125331;27;20200;-70
2022/03/16 03:50:12;;;;;;;42.10;22.23;;;;;;;6.56;nan;95843.78;5125796;27;20199;-70
2022/03/16 03:52:39;;;;;;;49.65;22.23;;;;;;;6.53;nan;95843.78;5125473;27;20269;-70
2022/03/16 03:55:06;;;;;;;45.67;21.98;;;;;;;6.18;nan;95838.94;5125277;27;20721;-71
2022/03/16 03:57:33;;;;;;;43.95;21.95;;;;;;;5.49;nan;95848.31;5107768;27;20232;-71
2022/03/16 03:59:59;;;;;;;36.80;20.50;;;;;;;5.62;nan;95834.03;5124370;27;20214;-71
2022/03/16 04:02:26;;;;;;;38.47;19.50;;;;;;;5.75;nan;95835.66;5124448;27;20758;-71
2022/03/16 04:04:53;;;;;;;43.42;22.27;;;;;;;6.07;nan;95833.09;5123680;27;20284;-71
2022/03/16 04:07:21;;;;;;;43.53;20.85;;;;;;;6.17;nan;95828.84;5123899;27;20635;-70
2022/03/16 04:09:50;;;;;;;41.22;21.25;;;;;;;6.23;nan;95834.69;5123967;27;20823;-70
2022/03/16 04:12:17;;;;;;;44.25;20.80;;;;;;;5.98;nan;95833.09;5125055;27;20204;-70
2022/03/16 04:14:44;;;;;;;41.05;19.95;;;;;;;6.02;nan;95834.78;5124639;27;20219;-70
2022/03/16 04:17:10;;;;;;;36.83;20.15;;;;;;;5.84;nan;95827.25;5125586;27;20209;-70
2022/03/16 04:19:37;;;;;;;36.10;20.08;;;;;;;6.14;nan;95824.66;5123812;27;20232;-70
2022/03/16 04:22:04;;;;;;;43.70;20.30;;;;;;;6.13;nan;95818.75;5124220;27;20276;-70
2022/03/16 04:24:32;;;;;;;36.65;19.30;;;;;;;6.23;nan;95821.22;5124757;27;20636;-71
2022/03/16 04:26:59;;;;;;;43.08;19.58;;;;;;;6.00;nan;95812.06;5124742;27;20208;-70
2022/03/16 04:29:26;;;;;;;35.28;18.63;;;;;;;6.20;nan;95811.97;5125311;27;20279;-70
2022/03/16 04:31:53;;;;;;;40.35;18.83;;;;;;;6.12;nan;95811.19;5137010;27;22884;-70
2022/03/16 04:34:20;;;;;;;42.28;20.00;;;;;;;6.26;nan;95804.38;5143149;27;20257;-72
2022/03/16 04:36:47;;;;;;;42.55;19.63;;;;;;;6.40;nan;95801.81;5145407;27;20279;-70
2022/03/16 04:39:14;;;;;;;41.45;20.33;;;;;;;6.63;nan;95802.50;5142960;27;20218;-70
2022/03/16 04:41:42;;;;;;;38.92;19.85;;;;;;;6.89;nan;95802.31;5143126;27;20625;-70
2022/03/16 04:44:09;;;;;;;44.53;19.92;;;;;;;6.99;nan;95792.97;5143296;27;20234;-70
2022/03/16 04:46:35;;;;;;;118.95;52.60;;;;;;;6.86;nan;95796.44;5145224;27;20250;-71
2022/03/16 04:49:02;;;;;;;91.28;38.63;;;;;;;6.80;nan;95797.31;5142178;27;20362;-71
2022/03/16 04:51:29;;;;;;;62.47;27.77;;;;;;;6.80;nan;95785.53;5142912;27;20662;-71
2022/03/16 04:53:56;;;;;;;55.90;26.25;;;;;;;6.90;nan;95781.25;5141649;27;20219;-70
2022/03/16 04:56:23;;;;;;;66.43;31.55;;;;;;;7.12;nan;95787.81;5145037;27;20745;-70
2022/03/16 04:58:51;;;;;;;50.42;23.55;;;;;;;6.78;nan;95789.75;5143480;27;20319;-71
2022/03/16 05:01:18;;;;;;;53.20;25.73;;;;;;;6.86;nan;95771.19;5143907;27;20232;-71
2022/03/16 05:03:46;;;;;;;47.55;23.13;;;;;;;6.78;nan;95759.44;5143710;27;20295;-70
2022/03/16 05:06:12;;;;;;;45.70;20.60;;;;;;;6.48;nan;95769.75;5143015;27;20202;-71
2022/03/16 05:08:40;;;;;;;47.47;18.73;;;;;;;6.46;nan;95776.50;5144181;27;20279;-70
2022/03/16 05:11:06;;;;;;;34.00;19.42;;;;;;;6.75;nan;95774.63;5145516;27;20198;-71
2022/03/16 05:13:33;;;;;;;47.28;21.27;;;;;;;6.90;nan;95770.31;5143325;27;20207;-71
2022/03/16 05:16:02;;;;;;;38.03;20.45;;;;;;;7.08;nan;95777.72;5142793;27;20218;-70
2022/03/16 05:18:28;;;;;;;38.53;20.08;;;;;;;7.29;nan;95764.88;5143994;27;20206;-70
2022/03/16 05:20:55;;;;;;;48.90;22.25;;;;;;;6.69;nan;95758.66;5144696;27;20195;-70
2022/03/16 05:23:22;;;;;;;47.38;20.45;;;;;;;6.56;nan;95762.13;5144390;27;20206;-70
2022/03/16 05:25:49;;;;;;;49.40;21.98;;;;;;;6.76;nan;95762.81;5144339;27;20202;-72
2022/03/16 05:28:16;;;;;;;47.63;23.10;;;;;;;7.00;nan;95757.56;5144159;27;20287;-71
2022/03/16 05:30:43;;;;;;;60.63;24.08;;;;;;;7.07;nan;95756.69;5141453;27;20594;-70
2022/03/16 05:33:12;;;;;;;59.13;26.17;;;;;;;7.32;nan;95744.63;5143082;27;20215;-70
2022/03/16 05:35:40;;;;;;;60.65;23.98;;;;;;;7.23;nan;95742.19;5144896;27;20302;-71
2022/03/16 05:38:08;;;;;;;70.00;31.60;;;;;;;7.33;nan;95741.25;5143196;27;20198;-71
2022/03/16 05:40:34;;;;;;;76.88;29.23;;;;;;;7.32;nan;95737.06;5143372;27;20203;-70
2022/03/16 05:43:01;;;;;;;53.78;26.05;;;;;;;7.39;nan;95728.56;5143036;27;20199;-70
2022/03/16 05:45:28;;;;;;;56.88;25.75;;;;;;;7.48;nan;95733.50;5143389;27;20194;-71
2022/03/16 05:47:55;;;;;;;66.85;25.83;;;;;;;7.43;nan;95725.13;5143927;27;20203;-70
2022/03/16 05:50:28;;;;;;;76.80;28.75;;;;;;;7.56;nan;95717.41;5142038;27;20670;-70
2022/03/16 05:52:55;;;;;;;66.70;25.35;;;;;;;7.31;nan;95722.72;5142083;27;20210;-72
2022/03/16 05:55:22;;;;;;;52.45;24.63;;;;;;;7.29;nan;95716.84;5144278;27;20780;-70
2022/03/16 05:57:49;;;;;;;57.70;26.02;;;;;;;7.07;nan;95715.41;5143262;27;20217;-70
2022/03/16 06:00:17;;;;;;;57.65;25.65;;;;;;;7.07;nan;95723.81;5142085;27;20263;-70
2022/03/16 06:02:44;;;;;;;61.28;26.17;;;;;;;6.86;nan;95723.19;5145388;27;20199;-72
2022/03/16 06:05:11;;;;;;;59.20;25.58;;;;;;;6.96;nan;95724.75;5143882;27;20214;-72
2022/03/16 06:07:39;;;;;;;56.50;27.38;;;;;;;6.86;nan;95729.06;5142131;27;20289;-70
2022/03/16 06:10:07;;;;;;;53.22;28.73;;;;;;;6.57;nan;95729.31;5141108;27;20203;-71
2022/03/16 06:12:34;;;;;;;70.83;29.30;;;;;;;6.38;nan;95730.28;5142039;27;20203;-71
2022/03/16 06:15:01;;;;;;;65.45;29.42;;;;;;;6.38;nan;95727.75;5142743;27;20235;-71
2022/03/16 06:17:28;;;;;;;58.67;28.80;;;;;;;6.25;nan;95716.88;5143191;27;20214;-72
2022/03/16 06:19:55;;;;;;;60.33;27.87;;;;;;;6.22;nan;95726.16;5142152;27;20199;-70
2022/03/16 06:22:22;;;;;;;54.67;26.03;;;;;;;6.17;nan;95733.78;5143063;27;20219;-71
2022/03/16 06:24:50;;;;;;;52.43;25.77;;;;;;;6.17;nan;95738.00;5142552;27;20316;-72
2022/03/16 06:27:17;;;;;;;52.00;24.90;;;;;;;5.67;nan;95706.25;5144323;27;20207;-71
2022/03/16 06:29:44;;;;;;;51.50;26.40;;;;;;;5.91;nan;95728.88;5145522;27;20226;-71
2022/03/16 06:32:11;;;;;;;55.05;25.60;;;;;;;5.93;nan;95724.66;5147588;27;20234;-71
2022/03/16 06:34:38;;;;;;;64.47;28.38;;;;;;;6.02;nan;95724.59;5147128;27;20228;-71
2022/03/16 06:37:05;;;;;;;55.43;27.40;;;;;;;6.28;nan;95731.19;5147833;27;20249;-72
2022/03/16 06:39:32;;;;;;;61.50;28.10;;;;;;;6.46;nan;95728.53;5147036;27;20260;-69
2022/03/16 06:42:00;;;;;;;52.27;25.97;;;;;;;6.35;nan;95717.69;5145403;27;20670;-71
2022/03/16 06:44:27;;;;;;;68.53;26.55;;;;;;;6.56;nan;95732.66;5145770;27;20265;-72
2022/03/16 06:46:54;;;;;;;62.60;27.00;;;;;;;6.83;nan;95727.41;5148325;27;20314;-71
2022/03/16 06:49:21;;;;;;;62.15;28.65;;;;;;;6.96;nan;95727.28;5147303;27;20223;-71
2022/03/16 06:51:48;;;;;;;54.50;28.58;;;;;;;6.90;nan;95724.84;5146655;27;20199;-71
2022/03/16 06:54:15;;;;;;;64.38;29.63;;;;;;;6.94;nan;95728.97;5145550;27;20713;-71
2022/03/16 06:56:44;;;;;;;60.40;30.38;;;;;;;7.02;nan;95733.13;5144177;27;20797;-70
2022/03/16 06:59:13;;;;;;;64.25;31.27;;;;;;;6.56;nan;95729.31;5147847;27;20223;-71
2022/03/16 07:01:40;;;;;;;57.67;28.92;;;;;;;6.66;nan;95729.25;5145704;27;20218;-70
2022/03/16 07:04:07;;;;;;;85.32;37.63;;;;;;;6.82;nan;95728.25;5144750;27;20685;-67
2022/03/16 07:06:34;;;;;;;307.27;124.20;;;;;;;7.19;nan;95717.78;5147058;27;20198;-70
2022/03/16 07:09:02;;;;;;;98.70;42.10;;;;;;;7.78;nan;95708.72;5146970;27;20682;-68
2022/03/16 07:11:31;;;;;;;79.10;33.05;;;;;;;8.14;nan;95705.72;5145955;27;20230;-70
2022/03/16 07:16:43;;;;;;;67.72;30.95;;;;;;;6.98;nan;95710.41;5146720;27;20733;-71
2022/03/16 07:19:10;;;;;;;74.07;31.58;;;;;;;6.83;nan;95717.28;5145854;27;20191;-70
2022/03/16 07:21:37;;;;;;;59.13;32.63;;;;;;;6.93;nan;95722.28;5145545;27;20677;-70
2022/03/16 07:24:04;;;;;;;66.15;31.98;;;;;;;7.01;nan;95715.44;5144569;27;20198;-70
2022/03/16 07:26:31;;;;;;;60.38;31.77;;;;;;;6.95;nan;95708.75;5145005;27;20208;-71
2022/03/16 07:28:58;;;;;;;77.45;31.20;;;;;;;7.02;nan;95714.59;5147511;27;20255;-71
2022/03/16 07:31:25;;;;;;;80.15;30.90;;;;;;;7.13;nan;95715.34;5146527;27;20254;-70
2022/03/16 07:33:53;;;;;;;81.45;30.65;;;;;;;7.09;nan;95713.69;5144878;27;20198;-71
2022/03/16 07:36:20;;;;;;;80.30;30.77;;;;;;;6.96;nan;95699.47;5147393;27;20307;-71
2022/03/16 07:38:46;;;;;;;88.90;31.27;;;;;;;6.97;nan;95709.59;5145119;27;20311;-71
2022/03/16 07:41:15;;;;;;;71.00;29.25;;;;;;;7.06;nan;95703.63;5144517;27;20290;-71
2022/03/16 07:43:41;;;;;;;61.70;30.05;;;;;;;7.28;nan;95692.44;5144392;27;20248;-72
2022/03/16 07:46:08;;;;;;;71.93;28.73;;;;;;;7.17;nan;95699.31;5146029;27;20887;-70
2022/03/16 07:48:36;;;;;;;65.32;29.42;;;;;;;7.40;nan;95701.59;5143818;27;20569;-70
2022/03/16 07:51:05;;;;;;;66.00;29.42;;;;;;;7.37;nan;95694.88;5145695;27;20195;-70
2022/03/16 07:53:32;;;;;;;78.03;32.15;;;;;;;7.39;nan;95702.44;5145896;27;20230;-70
2022/03/16 07:55:59;;;;;;;77.20;32.78;;;;;;;7.49;nan;95704.81;5145296;27;20227;-71
2022/03/16 07:58:26;;;;;;;80.70;34.90;;;;;;;7.57;nan;95692.09;5146156;27;20764;-70
2022/03/16 08:00:53;;;;;;;80.20;34.10;;;;;;;7.78;nan;95691.00;5145124;27;20199;-71
2022/03/16 08:03:19;;;;;;;63.30;33.83;;;;;;;7.97;nan;95691.59;5145381;27;20191;-71
2022/03/16 08:05:47;;;;;;;79.22;32.25;;;;;;;8.15;nan;95684.59;5144843;27;20214;-71
2022/03/16 08:08:17;;;;;;;66.93;31.42;;;;;;;8.10;nan;95683.81;5144404;27;20211;-72
2022/03/16 08:10:44;;;;;;;74.82;29.35;;;;;;;7.55;nan;95692.97;5144529;27;20293;-71
2022/03/16 08:13:10;;;;;;;66.55;28.50;;;;;;;7.55;nan;95692.97;5145418;27;20199;-71
2022/03/16 08:15:37;;;;;;;62.60;28.90;;;;;;;7.43;nan;95692.25;5144413;27;20728;-71
2022/03/16 08:18:04;;;;;;;67.80;28.55;;;;;;;7.38;nan;95691.47;5143024;27;20203;-71
2022/03/16 08:20:31;;;;;;;71.28;26.90;;;;;;;7.33;nan;95688.16;5144996;27;20254;-71
2022/03/16 08:22:57;;;;;;;56.22;26.58;;;;;;;7.24;nan;95683.19;5145052;27;20195;-71
2022/03/16 08:25:26;;;;;;;59.25;24.15;;;;;;;7.35;nan;95668.75;5144005;27;20203;-71
2022/03/16 08:27:53;;;;;;;46.38;23.85;;;;;;;7.55;nan;95662.63;5141596;27;20666;-71
2022/03/16 08:30:19;;;;;;;60.45;25.02;;;;;;;7.96;nan;95660.38;5143446;27;20198;-71
2022/03/16 08:32:46;;;;;;;52.92;22.38;;;;;;;7.76;nan;95667.41;5145850;27;20299;-71
2022/03/16 08:35:14;;;;;;;52.80;23.02;;;;;;;8.23;nan;95665.91;5144803;27;20667;-71
2022/03/16 08:37:41;;;;;;;44.30;18.73;;;;;;;8.26;nan;95663.34;5144776;27;20217;-71
2022/03/16 08:40:09;;;;;;;46.75;17.52;;;;;;;8.41;nan;95665.69;5144131;27;20187;-71
2022/03/16 08:42:38;;;;;;;43.63;20.90;;;;;;;8.81;nan;95665.84;5142773;27;20201;-70
2022/03/16 08:45:05;;;;;;;40.75;18.33;;;;;;;9.11;nan;95667.03;5142244;27;20662;-70
2022/03/16 08:47:32;;;;;;;44.08;19.50;;;;;;;9.30;nan;95668.34;5144539;27;20674;-69
2022/03/16 08:49:59;;;;;;;44.45;19.42;;;;;;;8.96;nan;95662.22;5144040;27;20210;-69
2022/03/16 08:52:26;;;;;;;44.63;18.42;;;;;;;8.74;nan;95647.38;5144693;27;20787;-70
2022/03/16 08:54:53;;;;;;;44.92;19.95;;;;;;;8.96;nan;95657.97;5143903;27;20219;-70
2022/03/16 08:57:20;;;;;;;48.45;20.17;;;;;;;8.95;nan;95647.84;5144072;27;20232;-70
2022/03/16 08:59:48;;;;;;;52.92;21.48;;;;;;;9.15;nan;95643.28;5145451;27;20217;-70
2022/03/16 09:02:15;;;;;;;53.40;23.88;;;;;;;9.14;nan;95641.63;5143303;27;20214;-70
2022/03/16 09:04:42;;;;;;;50.03;22.15;;;;;;;9.26;nan;95646.44;5145964;27;20243;-71
2022/03/16 09:07:09;;;;;;;50.35;20.95;;;;;;;9.39;nan;95647.88;5143486;27;20215;-70
2022/03/16 09:09:36;;;;;;;46.53;20.13;;;;;;;9.41;nan;95653.72;5142649;27;20276;-70
2022/03/16 09:12:03;;;;;;;40.05;20.13;;;;;;;9.36;nan;95649.66;5141647;27;20203;-69
2022/03/16 09:14:30;;;;;;;46.78;21.10;;;;;;;9.35;nan;95655.59;5144513;27;20212;-69
2022/03/16 09:16:58;;;;;;;46.15;22.63;;;;;;;9.49;nan;95654.44;5142556;27;20932;-70
2022/03/16 09:19:25;;;;;;;40.83;21.50;;;;;;;9.58;nan;95658.50;5141453;27;20252;-69
2022/03/16 09:21:52;;;;;;;62.15;21.85;;;;;;;9.65;nan;95659.22;5144018;27;20355;-69
2022/03/16 09:24:19;;;;;;;55.97;23.95;;;;;;;9.64;nan;95662.63;5145359;27;20200;-71
2022/03/16 09:26:46;;;;;;;50.95;25.52;;;;;;;9.53;nan;95658.59;5142222;27;20226;-72
2022/03/16 09:29:16;;;;;;;59.95;24.73;;;;;;;9.55;nan;95658.56;5144843;27;20555;-71
2022/03/16 09:31:44;;;;;;;65.97;24.30;;;;;;;9.67;nan;95654.91;5143506;27;20588;-70
2022/03/16 09:34:12;;;;;;;57.90;23.77;;;;;;;9.94;nan;95646.72;5144389;27;20594;-71
2022/03/16 09:36:42;;;;;;;44.20;22.35;;;;;;;10.05;nan;95660.03;5144206;27;20283;-70
2022/03/16 09:39:09;;;;;;;58.20;21.52;;;;;;;10.18;nan;95658.03;5144049;27;20588;-69
2022/03/16 09:41:37;;;;;;;56.67;23.42;;;;;;;10.22;nan;95663.06;5144786;27;20276;-71
2022/03/16 09:44:06;;;;;;;49.35;22.15;;;;;;;10.15;nan;95661.47;5143397;27;20832;-72
2022/03/16 09:46:35;;;;;;;54.15;22.95;;;;;;;10.16;nan;95658.06;5142429;27;20284;-70
2022/03/16 09:49:01;;;;;;;44.70;20.77;;;;;;;10.10;nan;95657.41;5141305;27;20711;-70
2022/03/16 09:51:35;;;;;;;47.95;22.10;;;;;;;9.93;nan;95645.03;5143764;27;20646;-73
2022/03/16 09:54:01;;;;;;;50.20;22.75;;;;;;;9.78;nan;95650.47;5142292;27;20199;-73
2022/03/16 09:56:29;;;;;;;50.20;22.33;;;;;;;9.76;nan;95654.72;5144073;27;20226;-70
2022/03/16 09:58:56;;;;;;;51.65;23.55;;;;;;;9.77;nan;95642.00;5143955;27;20222;-71
2022/03/16 10:01:23;;;;;;;50.90;22.23;;;;;;;9.71;nan;95644.69;5143539;27;20202;-69
2022/03/16 10:03:50;;;;;;;58.88;24.42;;;;;;;9.88;nan;95641.81;5146072;27;20210;-70
2022/03/16 10:06:18;;;;;;;49.60;23.30;;;;;;;9.98;nan;95638.16;5151788;27;20227;-71
2022/03/16 10:13:13;;;;;;;46.70;23.17;;;;;;;9.93;nan;95629.81;5142458;27;20293;-71
2022/03/16 10:14:18;;;;;;;57.38;22.30;;;;;;;9.85;nan;95632.53;5153865;27;20199;-72
2022/03/16 10:19:49;;;;;;;54.75;21.48;;;;;;;10.05;nan;95631.25;5155837;27;20579;-71
2022/03/16 10:22:25;;;;;;;46.55;21.10;;;;;;;10.03;nan;95626.22;5155106;27;20286;-70
2022/03/16 10:24:54;;;;;;;44.25;19.70;;;;;;;9.95;nan;95629.78;5154436;27;20247;-72
2022/03/16 10:27:22;;;;;;;41.30;19.33;;;;;;;10.02;nan;95634.69;5153448;27;20194;-71
2022/03/16 10:29:51;;;;;;;41.05;20.23;;;;;;;10.14;nan;95626.81;5153269;27;20195;-72
2022/03/16 10:32:22;;;;;;;45.38;20.92;;;;;;;10.10;nan;95627.75;5100962;27;20777;-71
2022/03/16 10:34:53;;;;;;;51.25;21.02;;;;;;;9.98;nan;95622.94;5068011;27;20624;-72
2022/03/16 10:37:21;;;;;;;43.72;20.25;;;;;;;10.16;nan;95635.22;5067814;28;20222;-72
2022/03/16 10:39:50;;;;;;;43.90;19.02;;;;;;;10.39;nan;95632.19;5069395;28;20760;-72
2022/03/16 10:47:59;;;;;;;40.55;19.38;;;;;;;10.20;nan;95634.31;5070152;28;20229;-72
2022/03/16 10:50:26;;;;;;;33.08;15.90;;;;;;;10.42;nan;95628.72;5069496;28;20195;-71
2022/03/16 10:52:54;;;;;;;41.58;16.70;;;;;;;10.52;nan;95620.03;5069822;28;20195;-72
2022/03/16 10:55:22;;;;;;;30.20;17.00;;;;;;;10.30;nan;95608.72;5069656;28;20621;-71
2022/03/16 10:57:51;;;;;;;33.30;15.98;;;;;;;10.60;nan;95613.06;5069461;27;20623;-71
2022/03/16 11:00:19;;;;;;;35.90;16.48;;;;;;;10.31;nan;95610.38;5069141;28;20201;-71
2022/03/16 11:02:47;;;;;;;37.33;14.75;;;;;;;10.57;nan;95608.03;5069680;28;20194;-71
2022/03/16 11:05:18;;;;;;;42.35;16.52;;;;;;;10.70;nan;95604.31;5069332;28;20665;-71
2022/03/16 11:07:46;;;;;;;47.65;19.30;;;;;;;10.52;nan;95597.16;5070051;28;20199;-72
2022/03/16 11:10:13;;;;;;;51.05;18.35;;;;;;;10.23;nan;95585.16;5069884;28;20246;-71
2022/03/16 11:15:26;;;;;;;43.65;19.27;;;;;;;10.91;nan;95588.50;5068754;28;20217;-72
2022/03/16 11:17:53;;;;;;;41.30;17.73;;;;;;;10.63;nan;95582.47;5069326;28;20680;-71
2022/03/16 11:20:21;;;;;;;37.85;17.35;;;;;;;10.31;nan;95582.44;5069028;28;20679;-71
2022/03/16 11:25:50;;;;;;;37.30;18.17;;;;;;;10.36;nan;95557.75;5069869;28;20210;-72
2022/03/16 11:28:24;;;;;;;37.20;18.38;;;;;;;10.25;nan;95560.53;5069742;28;20194;-71
2022/03/16 11:30:55;;;;;;;50.50;20.77;;;;;;;10.36;nan;95547.59;5069107;27;20251;-72
2022/03/16 11:33:24;;;;;;;45.13;18.38;;;;;;;10.62;nan;95549.47;5069100;28;20198;-72
2022/03/16 11:35:53;;;;;;;42.08;20.23;;;;;;;10.42;nan;95543.16;5068894;27;20244;-71
2022/03/16 11:38:21;;;;;;;51.60;19.58;;;;;;;10.21;nan;95534.38;5069356;28;20639;-71
2022/03/16 11:40:50;;;;;;;55.67;19.08;;;;;;;10.28;nan;95530.00;5068797;28;20266;-72
2022/03/16 11:43:22;;;;;;;42.15;20.30;;;;;;;10.42;nan;95522.84;5068931;28;20202;-73
2022/03/16 11:45:54;;;;;;;51.55;22.23;;;;;;;10.65;nan;95532.41;5068948;28;20608;-72
2022/03/16 11:48:42;;;;;;;45.50;21.55;;;;;;;10.75;nan;95531.31;5069599;27;20306;-73
2022/03/16 11:51:17;;;;;;;67.30;22.15;;;;;;;10.53;nan;95525.94;5068730;28;20202;-73
2022/03/16 11:54:06;;;;;;;51.50;20.63;;;;;;;10.33;nan;95524.81;5068426;28;20250;-72
2022/03/16 11:56:44;;;;;;;47.42;19.48;;;;;;;10.29;nan;95525.75;5068682;28;20226;-72
2022/03/16 11:59:32;;;;;;;50.15;20.55;;;;;;;10.34;nan;95518.84;5068273;27;20304;-74
2022/03/16 12:02:12;;;;;;;54.13;20.25;;;;;;;10.61;nan;95518.13;5068380;28;20191;-73
2022/03/16 12:04:43;;;;;;;50.92;20.38;;;;;;;10.82;nan;95515.00;5068973;28;20187;-72